Dayton, MN (55327)

7:37 AM CDT on May 24, 2015 (GMT -0500)
Stonehearth Ridge | | Change Station
CLOSE
Current Station
Personal Weather Station
Location: Dayton, MN
Elevation: 889 ft
Nearby Weather Stations

Elev 889 ft 45.18 °N, 93.47 °W | Updated 4 minutes ago

Overcast
Overcast
59.5 °F
Feels Like 59.5 °F
N
2.2
Wind Variable Wind from ESE

Today
High -- | Low -- °F
--% Chance of Precip.
Yesterday
High -- | Low -- °F
Precip. -- in
5:35 AM 8:46 PM
Waxing Crescent, 39% visible
Pressure 30.04 in
Visibility 10.0 miles
Clouds Overcast 5500 ft
Dew Point 54 °F
Humidity 83%
Rainfall 0.00 in
Snow Depth Not available.
UV 0 out of 12
Pollen 4.10 out of 12
Air Quality Not available.
Flu Activity Sporadic
METAR KMIC 241153Z 09003KT 10SM OVC055 17/09 A3004 RMK AO2 SLP170 60000 T01670094 10172 20150 56019

More Conditions Fewer Conditions

Pressure 30.04 in
Visibility 10.0 miles
Clouds Overcast 5500 ft
Dew Point 54 °F
Humidity 83%
Rainfall 0.00 in
Snow Depth Not available.
UV 0 out of 12
Pollen 4.10 out of 12
Air Quality Not available.
Flu Activity Sporadic
METAR KMIC 241153Z 09003KT 10SM OVC055 17/09 A3004 RMK AO2 SLP170 60000 T01670094 10172 20150 56019

More Conditions Fewer Conditions

10-Day Weather Forecast

Almanac

Astronomy

May. 24, 2015 Rise Set
Actual Time
Civil Twilight
Nautical Twilight
Astronomical Twilight
Moon
Length of Visible Light
Length of Day
Tomorrow will be .
, % of the Moon is Illuminated

Today's Extremes

State Highs State Lows

Community

WunderPhotos

Upload Photos

1,823,722 photos uploaded!

WunderBlogs® & News

Nearby

Air Quality

  Air Quality AQ Index Pollutant
Not available.

Snow Depth

Station Depth Elevation

Earthquake Activity

City Distance Mag. Time & Date
Minimum magnitude displayed is 2.5.

Coastal Water Temperatures

Place Temperature

Stations

Nearby Weather Stations

Station Location Temp. Windchill Dew Point Humidity Wind Precip. Elev Updated Type